createdAt,value
2023-04-15T00:01:01.346Z,89.66
2023-04-15T00:03:28.735Z,89.77
2023-04-15T00:05:55.712Z,89.83
2023-04-15T00:08:22.487Z,89.34
2023-04-15T00:10:49.594Z,90.44
2023-04-15T00:13:16.640Z,89.24
2023-04-15T00:15:43.528Z,90.14
2023-04-15T00:18:10.512Z,91.00
2023-04-15T00:20:37.735Z,91.45
2023-04-15T00:23:05.705Z,89.69
2023-04-15T00:25:33.240Z,87.76
2023-04-15T00:27:59.958Z,89.11
2023-04-15T00:30:26.901Z,90.57
2023-04-15T00:32:53.714Z,90.43
2023-04-15T00:35:22.659Z,88.60
2023-04-15T00:37:51.475Z,90.46
2023-04-15T00:40:20.148Z,88.88
2023-04-15T00:42:46.922Z,91.98
2023-04-15T00:45:14.405Z,94.98
2023-04-15T00:47:45.351Z,94.69
2023-04-15T00:50:13.254Z,95.69
2023-04-15T00:52:41.159Z,95.78
2023-04-15T00:55:08.951Z,94.01
2023-04-15T00:57:36.469Z,95.19
2023-04-15T01:00:05.690Z,96.47
2023-04-15T01:02:33.542Z,97.82
2023-04-15T01:05:04.095Z,97.60
2023-04-15T01:07:32.269Z,97.25
2023-04-15T01:09:59.086Z,96.35
2023-04-15T01:12:27.136Z,96.38
2023-04-15T01:14:55.359Z,96.86
2023-04-15T01:17:22.284Z,96.72
2023-04-15T01:19:49.246Z,96.39
2023-04-15T01:22:16.527Z,95.55
2023-04-15T01:24:55.614Z,95.67
2023-04-15T01:27:22.718Z,99.28
2023-04-15T01:29:49.420Z,100.00
2023-04-15T01:32:16.533Z,98.61
2023-04-15T01:34:44.122Z,95.62
2023-04-15T01:37:11.202Z,94.87
2023-04-15T01:39:37.882Z,93.23
2023-04-15T01:42:04.572Z,92.52
2023-04-15T01:44:31.679Z,94.23
2023-04-15T01:46:59.320Z,94.12
2023-04-15T01:49:27.640Z,95.38
2023-04-15T01:51:54.952Z,92.88
2023-04-15T01:54:21.606Z,92.56
2023-04-15T01:56:48.439Z,93.15
2023-04-15T01:59:15.242Z,93.43
2023-04-15T02:01:42.191Z,93.92
2023-04-15T02:04:16.716Z,94.41
2023-04-15T02:06:43.977Z,100.00
2023-04-15T02:09:12.389Z,98.16
2023-04-15T02:11:39.328Z,96.73
2023-04-15T02:14:06.583Z,94.73
2023-04-15T02:16:33.956Z,94.99
2023-04-15T02:19:01.387Z,97.60
2023-04-15T02:21:28.556Z,98.02
2023-04-15T02:23:55.991Z,98.72
2023-04-15T02:26:23.116Z,97.09
2023-04-15T02:28:51.434Z,97.86
2023-04-15T02:31:18.186Z,97.02
2023-04-15T02:33:45.354Z,98.40
2023-04-15T02:36:12.544Z,96.59
2023-04-15T02:38:41.338Z,97.51
2023-04-15T02:41:11.668Z,98.51
2023-04-15T02:43:40.153Z,95.36
2023-04-15T02:46:07.881Z,96.24
2023-04-15T02:48:34.729Z,97.95
2023-04-15T02:51:22.780Z,95.75
2023-04-15T02:53:50.853Z,98.51
2023-04-15T02:56:19.434Z,100.00
2023-04-15T02:58:46.797Z,98.19
2023-04-15T03:01:13.711Z,100.00
2023-04-15T03:03:41.644Z,100.00
2023-04-15T03:06:09.469Z,99.20
2023-04-15T03:08:37.068Z,100.00
2023-04-15T03:11:04.565Z,100.00
2023-04-15T03:13:32.576Z,100.00
2023-04-15T03:16:03.485Z,100.00
2023-04-15T03:18:32.066Z,100.00
2023-04-15T03:21:02.703Z,100.00
2023-04-15T03:23:32.257Z,100.00
2023-04-15T03:26:02.592Z,100.00
2023-04-15T03:28:31.384Z,100.00
2023-04-15T03:30:59.243Z,100.00
2023-04-15T03:33:26.146Z,100.00
2023-04-15T03:35:53.577Z,100.00
2023-04-15T03:38:20.659Z,100.00
2023-04-15T03:40:47.480Z,100.00
2023-04-15T03:43:14.450Z,100.00
2023-04-15T03:45:42.832Z,100.00
2023-04-15T03:48:17.384Z,100.00
2023-04-15T03:50:45.253Z,100.00
2023-04-15T03:53:12.151Z,100.00
2023-04-15T03:55:38.790Z,100.00
2023-04-15T03:58:05.622Z,100.00
2023-04-15T04:00:32.486Z,100.00
2023-04-15T04:02:59.373Z,100.00
2023-04-15T04:05:26.409Z,100.00
2023-04-15T04:07:53.106Z,100.00
2023-04-15T04:10:19.956Z,100.00
2023-04-15T04:12:46.749Z,100.00
2023-04-15T04:15:13.821Z,100.00
2023-04-15T04:17:41.155Z,100.00
2023-04-15T04:20:08.519Z,100.00
2023-04-15T04:22:41.824Z,100.00
2023-04-15T04:25:10.253Z,100.00
2023-04-15T04:27:37.427Z,100.00
2023-04-15T04:30:05.387Z,100.00
2023-04-15T04:32:32.388Z,100.00
2023-04-15T04:34:59.191Z,100.00
2023-04-15T04:37:25.882Z,100.00
2023-04-15T04:39:52.569Z,100.00
2023-04-15T04:42:19.288Z,100.00
2023-04-15T04:44:46.416Z,100.00
2023-04-15T04:47:13.205Z,100.00
2023-04-15T04:49:40.103Z,100.00
2023-04-15T04:52:07.263Z,100.00
2023-04-15T04:54:33.909Z,100.00
2023-04-15T04:57:00.892Z,100.00
2023-04-15T04:59:28.359Z,100.00
2023-04-15T05:01:55.143Z,100.00
2023-04-15T05:04:22.069Z,100.00
2023-04-15T05:06:49.447Z,100.00
2023-04-15T05:09:16.436Z,100.00
2023-04-15T05:11:43.235Z,100.00
2023-04-15T05:14:10.099Z,100.00
2023-04-15T05:16:37.086Z,100.00
2023-04-15T05:19:04.003Z,100.00
2023-04-15T05:21:31.742Z,100.00
2023-04-15T05:23:58.479Z,100.00
2023-04-15T05:26:25.301Z,100.00
2023-04-15T05:28:52.105Z,100.00
2023-04-15T05:31:18.963Z,100.00
2023-04-15T05:33:45.794Z,100.00
2023-04-15T05:36:12.837Z,100.00
2023-04-15T05:38:39.607Z,100.00
2023-04-15T05:41:06.722Z,100.00
2023-04-15T05:43:33.544Z,100.00
2023-04-15T05:46:00.360Z,100.00
2023-04-15T05:48:27.206Z,100.00
2023-04-15T05:50:53.986Z,100.00
2023-04-15T05:53:20.784Z,100.00
2023-04-15T05:55:47.519Z,100.00
2023-04-15T05:58:14.407Z,100.00
2023-04-15T06:00:41.173Z,100.00
2023-04-15T06:03:07.994Z,100.00
2023-04-15T06:05:34.949Z,100.00
2023-04-15T06:08:02.010Z,99.61
2023-04-15T06:10:29.011Z,100.00
2023-04-15T06:12:56.248Z,100.00
2023-04-15T06:15:23.340Z,100.00
2023-04-15T06:17:50.092Z,100.00
2023-04-15T06:20:16.898Z,99.31
2023-04-15T06:22:43.591Z,99.84
2023-04-15T06:25:11.513Z,99.94
2023-04-15T06:27:38.200Z,100.00
2023-04-15T06:30:05.635Z,100.00
2023-04-15T06:32:32.874Z,100.00
2023-04-15T06:34:59.811Z,100.00
2023-04-15T06:37:26.432Z,97.19
2023-04-15T06:39:53.319Z,99.27
2023-04-15T06:42:20.060Z,96.97
2023-04-15T06:44:47.052Z,96.23
2023-04-15T06:47:14.838Z,93.38
2023-04-15T06:49:43.179Z,96.21
2023-04-15T06:52:10.987Z,93.44
2023-04-15T06:54:37.770Z,88.33
2023-04-15T06:57:04.510Z,88.24
2023-04-15T06:59:31.212Z,86.19
2023-04-15T07:01:57.965Z,85.17
2023-04-15T07:04:24.749Z,83.81
2023-04-15T07:06:52.160Z,83.80
2023-04-15T07:09:18.912Z,82.18
2023-04-15T07:11:45.677Z,78.21
2023-04-15T07:14:12.405Z,72.64
2023-04-15T07:16:39.112Z,69.77
2023-04-15T07:19:05.965Z,59.36
2023-04-15T07:21:32.591Z,55.24
2023-04-15T07:23:59.467Z,54.07
2023-04-15T07:26:26.400Z,53.20
2023-04-15T07:28:53.173Z,50.96
2023-04-15T07:31:19.930Z,50.29
2023-04-15T07:33:46.875Z,51.19
2023-04-15T07:36:14.096Z,51.06
2023-04-15T07:38:40.918Z,53.86
2023-04-15T07:41:07.708Z,60.33
2023-04-15T07:43:34.536Z,63.36
2023-04-15T07:46:02.142Z,57.25
2023-04-15T07:48:28.897Z,58.04
2023-04-15T07:50:55.619Z,56.76
2023-04-15T07:53:22.356Z,54.00
2023-04-15T07:55:49.181Z,52.91
2023-04-15T07:58:15.972Z,50.75
2023-04-15T08:00:44.783Z,48.10
2023-04-15T08:03:11.912Z,48.30
2023-04-15T08:05:38.726Z,47.79
2023-04-15T08:08:05.454Z,47.26
2023-04-15T08:10:32.535Z,47.23
2023-04-15T08:12:59.323Z,47.76
2023-04-15T08:15:26.626Z,48.25
2023-04-15T08:17:53.444Z,49.16
2023-04-15T08:20:20.676Z,48.47
2023-04-15T08:22:51.926Z,47.79
2023-04-15T08:25:19.946Z,48.67
2023-04-15T08:27:46.738Z,47.13
2023-04-15T08:30:14.137Z,47.75
2023-04-15T08:32:42.727Z,47.94
2023-04-15T08:35:10.459Z,47.70
2023-04-15T08:37:37.304Z,47.90
2023-04-15T08:40:05.035Z,47.86
2023-04-15T08:42:35.129Z,48.04
2023-04-15T08:45:07.155Z,47.73
2023-04-15T08:47:34.915Z,47.66
2023-04-15T08:50:04.497Z,48.05
2023-04-15T08:52:32.279Z,48.34
2023-04-15T08:55:00.450Z,48.21
2023-04-15T08:57:28.414Z,48.76
2023-04-15T08:59:58.560Z,49.72
2023-04-15T09:02:28.616Z,49.17
2023-04-15T09:04:55.499Z,48.80
2023-04-15T09:07:22.368Z,48.76
2023-04-15T09:09:49.472Z,50.17
2023-04-15T09:12:17.290Z,50.01
2023-04-15T09:14:47.541Z,49.04
2023-04-15T09:17:19.729Z,49.18
2023-04-15T09:19:46.710Z,48.98
2023-04-15T09:22:13.835Z,49.74
2023-04-15T09:24:42.253Z,49.42
2023-04-15T09:27:08.978Z,50.70
2023-04-15T09:29:37.278Z,50.18
2023-04-15T09:32:14.371Z,50.80
2023-04-15T09:34:41.225Z,53.17
2023-04-15T09:37:09.181Z,52.05
2023-04-15T09:39:47.200Z,52.11
2023-04-15T09:42:14.141Z,52.33
2023-04-15T09:44:40.855Z,51.09
2023-04-15T09:47:07.696Z,49.93
2023-04-15T09:49:34.466Z,51.06
2023-04-15T09:52:06.082Z,50.00
2023-04-15T09:54:37.987Z,50.51
2023-04-15T09:57:10.864Z,50.97
2023-04-15T09:59:37.783Z,50.13
2023-04-15T10:02:06.413Z,49.50
2023-04-15T10:04:36.587Z,48.51
2023-04-15T10:07:06.167Z,48.01
2023-04-15T10:09:34.211Z,48.26
2023-04-15T10:12:01.260Z,46.77
2023-04-15T10:14:29.275Z,45.27
2023-04-15T10:16:56.590Z,45.43
2023-04-15T10:19:26.027Z,46.40
2023-04-15T10:21:52.861Z,45.75
2023-04-15T10:24:20.229Z,46.84
2023-04-15T10:26:47.901Z,47.48
2023-04-15T10:29:14.926Z,47.87
2023-04-15T10:31:42.167Z,47.61
2023-04-15T10:34:09.080Z,47.37
2023-04-15T10:36:35.872Z,47.90
2023-04-15T10:39:02.860Z,46.14
2023-04-15T10:41:34.360Z,43.32
2023-04-15T10:44:03.300Z,43.13
2023-04-15T10:46:40.515Z,42.78
2023-04-15T10:49:11.370Z,43.54
2023-04-15T10:51:43.132Z,44.87
2023-04-15T10:54:25.944Z,44.28
2023-04-15T10:57:07.716Z,44.41
2023-04-15T11:00:00.368Z,45.88
2023-04-15T11:02:49.121Z,47.06
2023-04-15T11:05:17.749Z,46.89
2023-04-15T11:07:44.656Z,44.00
2023-04-15T11:10:14.457Z,41.79
2023-04-15T11:12:41.966Z,40.09
2023-04-15T11:15:40.976Z,38.81
2023-04-15T11:18:28.688Z,38.05
2023-04-15T11:21:01.303Z,38.08
2023-04-15T11:23:35.876Z,38.85
2023-04-15T11:26:05.615Z,40.08
2023-04-15T11:28:32.948Z,38.61
2023-04-15T11:31:06.804Z,38.15
2023-04-15T11:33:34.045Z,35.72
2023-04-15T11:36:01.541Z,36.81
2023-04-15T11:38:28.528Z,36.97
2023-04-15T11:40:55.536Z,37.13
2023-04-15T11:43:23.289Z,38.25
2023-04-15T11:45:58.598Z,40.31
2023-04-15T11:48:33.778Z,40.13
2023-04-15T11:51:02.232Z,39.96
2023-04-15T11:53:46.286Z,39.63
2023-04-15T11:56:21.096Z,39.27
2023-04-15T11:58:50.769Z,38.90
2023-04-15T12:01:18.664Z,39.48
2023-04-15T12:03:47.293Z,39.35
2023-04-15T12:06:17.709Z,39.07
2023-04-15T12:09:00.428Z,40.01
2023-04-15T12:11:27.175Z,40.05
2023-04-15T12:13:56.690Z,39.94
2023-04-15T12:16:24.446Z,38.94
2023-04-15T12:18:56.575Z,39.58
2023-04-15T12:21:24.175Z,38.99
2023-04-15T12:23:55.197Z,39.48
2023-04-15T12:26:31.393Z,40.46
2023-04-15T12:29:02.405Z,38.91
2023-04-15T12:31:29.396Z,38.88
2023-04-15T12:33:57.422Z,39.06
2023-04-15T12:36:25.119Z,39.31
2023-04-15T12:38:52.158Z,37.65
2023-04-15T12:41:20.633Z,37.74
2023-04-15T12:43:47.578Z,37.56
2023-04-15T12:46:16.060Z,37.64
2023-04-15T12:48:42.958Z,38.23
2023-04-15T12:51:09.625Z,37.04
2023-04-15T12:53:37.288Z,36.82
2023-04-15T12:56:04.129Z,38.00
2023-04-15T12:58:30.824Z,38.47
2023-04-15T13:00:57.597Z,39.47
2023-04-15T13:03:24.475Z,38.04
2023-04-15T13:05:52.635Z,38.17
2023-04-15T13:08:19.410Z,37.80
2023-04-15T13:10:46.400Z,38.77
2023-04-15T13:13:13.125Z,39.46
2023-04-15T13:15:40.403Z,39.36
2023-04-15T13:18:07.575Z,40.04
2023-04-15T13:20:34.269Z,39.40
2023-04-15T13:23:01.463Z,39.40
2023-04-15T13:25:28.251Z,37.86
2023-04-15T13:27:55.159Z,38.32
2023-04-15T13:30:21.974Z,38.50
2023-04-15T13:32:50.682Z,39.78
2023-04-15T13:35:17.978Z,38.11
2023-04-15T13:37:44.737Z,37.81
2023-04-15T13:40:11.894Z,37.77
2023-04-15T13:42:39.034Z,39.59
2023-04-15T13:45:07.473Z,41.05
2023-04-15T13:47:34.584Z,40.96
2023-04-15T13:50:01.357Z,41.43
2023-04-15T13:52:28.138Z,40.84
2023-04-15T13:55:19.714Z,41.28
2023-04-15T13:57:42.142Z,40.89
2023-04-15T14:00:09.638Z,41.87
2023-04-15T14:02:36.867Z,43.74
2023-04-15T14:05:03.738Z,44.03
2023-04-15T14:07:30.907Z,44.33
2023-04-15T14:09:57.759Z,43.20
2023-04-15T14:12:24.451Z,42.03
2023-04-15T14:14:51.325Z,43.18
2023-04-15T14:17:18.136Z,43.05
2023-04-15T14:19:44.833Z,42.82
2023-04-15T14:22:11.536Z,43.14
2023-04-15T14:24:38.449Z,42.86
2023-04-15T14:27:05.448Z,43.00
2023-04-15T14:29:32.232Z,42.40
2023-04-15T14:32:04.553Z,44.15
2023-04-15T14:34:38.522Z,45.46
2023-04-15T14:37:05.249Z,45.70
2023-04-15T14:39:32.296Z,45.68
2023-04-15T14:41:59.159Z,45.52
2023-04-15T14:44:26.057Z,44.96
2023-04-15T14:46:53.033Z,45.74
2023-04-15T14:49:19.913Z,46.00
2023-04-15T14:51:46.678Z,45.61
2023-04-15T14:54:13.651Z,45.49
2023-04-15T14:56:40.334Z,44.96
2023-04-15T14:59:07.439Z,44.22
2023-04-15T15:01:34.657Z,41.20
2023-04-15T15:04:01.467Z,44.79
2023-04-15T15:06:29.110Z,45.74
2023-04-15T15:08:55.971Z,46.19
2023-04-15T15:11:22.715Z,47.13
2023-04-15T15:13:49.551Z,45.42
2023-04-15T15:16:16.336Z,44.07
2023-04-15T15:18:43.109Z,44.20
2023-04-15T15:21:11.107Z,45.16
2023-04-15T15:23:37.801Z,45.60
2023-04-15T15:26:05.207Z,46.16
2023-04-15T15:28:31.854Z,46.71
2023-04-15T15:30:58.746Z,46.04
2023-04-15T15:33:25.698Z,45.31
2023-04-15T15:35:52.716Z,44.34
2023-04-15T15:38:19.502Z,45.46
2023-04-15T15:40:46.324Z,45.74
2023-04-15T15:43:13.059Z,46.29
2023-04-15T15:45:40.963Z,46.94
2023-04-15T15:48:07.811Z,47.67
2023-04-15T15:50:34.849Z,47.50
2023-04-15T15:53:01.571Z,46.48
2023-04-15T15:55:28.511Z,47.92
2023-04-15T15:57:55.277Z,45.89
2023-04-15T16:00:23.247Z,46.61
2023-04-15T16:03:05.691Z,47.25
2023-04-15T16:05:33.376Z,46.53
2023-04-15T16:08:00.188Z,47.10
2023-04-15T16:10:27.054Z,47.93
2023-04-15T16:12:54.382Z,48.76
2023-04-15T16:15:22.100Z,48.05
2023-04-15T16:17:48.836Z,48.25
2023-04-15T16:20:15.742Z,47.65
2023-04-15T16:22:42.495Z,48.02
2023-04-15T16:25:10.631Z,46.70
2023-04-15T16:27:50.260Z,47.97
2023-04-15T16:30:24.971Z,47.02
2023-04-15T16:32:51.857Z,47.08
2023-04-15T16:35:18.670Z,48.04
2023-04-15T16:37:45.328Z,48.11
2023-04-15T16:40:12.639Z,48.28
2023-04-15T16:42:39.881Z,48.61
2023-04-15T16:45:07.112Z,48.70
2023-04-15T16:47:33.854Z,48.53
2023-04-15T16:50:00.836Z,48.45
2023-04-15T16:52:29.182Z,49.88
2023-04-15T16:54:56.129Z,50.88
2023-04-15T16:57:22.840Z,51.04
2023-04-15T16:59:51.747Z,50.35
2023-04-15T17:02:18.661Z,51.86
2023-04-15T17:04:45.547Z,52.47
2023-04-15T17:07:13.026Z,53.56
2023-04-15T17:09:40.400Z,52.29
2023-04-15T17:12:07.475Z,50.73
2023-04-15T17:14:35.093Z,51.25
2023-04-15T17:17:02.039Z,51.83
2023-04-15T17:19:28.919Z,52.18
2023-04-15T17:21:56.316Z,51.34
2023-04-15T17:24:23.447Z,52.17
2023-04-15T17:26:50.217Z,52.67
2023-04-15T17:29:17.075Z,53.44
2023-04-15T17:31:43.863Z,53.98
2023-04-15T17:34:12.122Z,55.13
2023-04-15T17:36:40.060Z,56.82
2023-04-15T17:39:07.231Z,61.11
2023-04-15T17:41:34.169Z,59.55
2023-04-15T17:44:01.010Z,60.70
2023-04-15T17:46:28.595Z,58.80
2023-04-15T17:48:55.285Z,57.08
2023-04-15T17:51:22.027Z,58.92
2023-04-15T17:53:48.846Z,57.90
2023-04-15T17:56:15.767Z,57.85
2023-04-15T17:58:43.370Z,59.15
2023-04-15T18:01:10.026Z,57.67
2023-04-15T18:03:36.908Z,58.96
2023-04-15T18:06:03.976Z,58.45
2023-04-15T18:08:31.431Z,61.93
2023-04-15T18:10:58.104Z,61.77
2023-04-15T18:13:24.849Z,62.83
2023-04-15T18:15:51.604Z,69.91
2023-04-15T18:18:18.481Z,70.68
2023-04-15T18:20:45.426Z,78.93
2023-04-15T18:23:12.370Z,77.36
2023-04-15T18:25:39.219Z,77.34
2023-04-15T18:28:06.147Z,79.38
2023-04-15T18:30:32.940Z,78.71
2023-04-15T18:32:59.726Z,75.91
2023-04-15T18:35:26.578Z,71.81
2023-04-15T18:37:53.313Z,77.67
2023-04-15T18:40:20.189Z,77.39
2023-04-15T18:42:46.972Z,78.34
2023-04-15T18:45:13.771Z,80.63
2023-04-15T18:47:40.774Z,80.71
2023-04-15T18:50:08.165Z,79.97
2023-04-15T18:52:35.008Z,79.38
2023-04-15T18:55:03.366Z,79.15
2023-04-15T18:57:35.157Z,79.38
2023-04-15T19:00:03.769Z,80.02
2023-04-15T19:02:31.578Z,79.22
2023-04-15T19:04:59.020Z,77.36
2023-04-15T19:07:25.889Z,77.70
2023-04-15T19:09:53.311Z,78.72
2023-04-15T19:12:20.080Z,78.71
2023-04-15T19:14:46.775Z,79.57
2023-04-15T19:17:13.536Z,79.11
2023-04-15T19:19:40.306Z,80.86
2023-04-15T19:22:07.418Z,82.13
2023-04-15T19:24:34.233Z,85.70
2023-04-15T19:27:01.746Z,83.84
2023-04-15T19:29:28.826Z,82.71
2023-04-15T19:31:56.360Z,84.43
2023-04-15T19:34:23.138Z,85.00
2023-04-15T19:36:49.836Z,84.27
2023-04-15T19:39:16.713Z,84.35
2023-04-15T19:41:44.353Z,86.89
2023-04-15T19:44:13.078Z,85.81
2023-04-15T19:46:44.910Z,87.03
2023-04-15T19:49:11.689Z,84.86
2023-04-15T19:51:38.374Z,86.85
2023-04-15T19:54:05.146Z,89.98
2023-04-15T19:56:34.258Z,98.34
2023-04-15T19:59:02.069Z,99.65
2023-04-15T20:01:29.111Z,97.13
2023-04-15T20:03:56.178Z,100.00
2023-04-15T20:06:23.329Z,98.26
2023-04-15T20:08:50.054Z,100.00
2023-04-15T20:11:17.049Z,100.00
2023-04-15T20:13:43.787Z,100.00
2023-04-15T20:16:11.773Z,100.00
2023-04-15T20:18:38.558Z,100.00
2023-04-15T20:21:05.565Z,100.00
2023-04-15T20:23:32.381Z,100.00
2023-04-15T20:25:59.894Z,100.00
2023-04-15T20:28:27.523Z,100.00
2023-04-15T20:30:54.330Z,100.00
2023-04-15T20:33:22.216Z,100.00
2023-04-15T20:35:49.033Z,100.00
2023-04-15T20:38:16.364Z,100.00
2023-04-15T20:40:43.702Z,100.00
2023-04-15T20:43:10.549Z,100.00
2023-04-15T20:45:38.473Z,100.00
2023-04-15T20:48:05.719Z,100.00
2023-04-15T20:50:32.423Z,100.00
2023-04-15T20:52:59.238Z,100.00
2023-04-15T20:55:26.037Z,100.00
2023-04-15T20:57:52.778Z,100.00
2023-04-15T21:00:19.584Z,100.00
2023-04-15T21:02:49.146Z,100.00
2023-04-15T21:05:17.531Z,100.00
2023-04-15T21:07:44.346Z,100.00
2023-04-15T21:10:11.251Z,100.00
2023-04-15T21:12:40.766Z,100.00
2023-04-15T21:15:08.542Z,100.00
2023-04-15T21:17:35.620Z,100.00
2023-04-15T21:20:02.530Z,100.00
2023-04-15T21:22:29.329Z,100.00
2023-04-15T21:24:56.107Z,100.00
2023-04-15T21:27:22.860Z,100.00
2023-04-15T21:29:49.631Z,100.00
2023-04-15T21:32:16.660Z,100.00
2023-04-15T21:34:43.899Z,100.00
2023-04-15T21:37:10.640Z,100.00
2023-04-15T21:39:37.331Z,100.00
2023-04-15T21:42:04.144Z,100.00
2023-04-15T21:44:32.705Z,100.00
2023-04-15T21:47:00.442Z,100.00
2023-04-15T21:49:27.382Z,100.00
2023-04-15T21:51:54.012Z,100.00
2023-04-15T21:54:20.772Z,100.00
2023-04-15T21:56:49.772Z,100.00
2023-04-15T21:59:16.485Z,100.00
2023-04-15T22:01:43.256Z,100.00
2023-04-15T22:04:11.189Z,100.00
2023-04-15T22:06:38.280Z,100.00
2023-04-15T22:09:05.049Z,100.00
2023-04-15T22:11:32.374Z,100.00
2023-04-15T22:13:59.514Z,100.00
2023-04-15T22:16:26.750Z,100.00
2023-04-15T22:18:54.343Z,100.00
2023-04-15T22:21:21.282Z,100.00
2023-04-15T22:23:48.702Z,100.00
2023-04-15T22:26:16.303Z,100.00
2023-04-15T22:28:43.032Z,100.00
2023-04-15T22:31:10.154Z,100.00
2023-04-15T22:33:37.043Z,100.00
2023-04-15T22:36:03.893Z,100.00
2023-04-15T22:38:30.931Z,100.00
2023-04-15T22:40:58.504Z,100.00
2023-04-15T22:43:25.966Z,100.00
2023-04-15T22:45:55.325Z,100.00
2023-04-15T22:48:22.884Z,100.00
2023-04-15T22:50:49.961Z,100.00
2023-04-15T22:53:20.143Z,100.00
2023-04-15T22:55:48.175Z,100.00
2023-04-15T22:58:15.898Z,100.00
2023-04-15T23:00:42.661Z,100.00
2023-04-15T23:03:09.622Z,100.00
2023-04-15T23:05:37.358Z,100.00
2023-04-15T23:08:04.128Z,100.00
2023-04-15T23:10:30.866Z,100.00
2023-04-15T23:12:57.578Z,100.00
2023-04-15T23:15:24.564Z,100.00
2023-04-15T23:17:51.439Z,100.00
2023-04-15T23:20:18.396Z,100.00
2023-04-15T23:22:45.761Z,100.00
2023-04-15T23:25:12.388Z,100.00
2023-04-15T23:27:39.247Z,100.00
2023-04-15T23:30:06.790Z,100.00
2023-04-15T23:32:33.610Z,100.00
2023-04-15T23:35:00.397Z,100.00
2023-04-15T23:37:27.853Z,100.00
2023-04-15T23:39:55.758Z,100.00
2023-04-15T23:42:23.233Z,100.00
2023-04-15T23:44:50.908Z,100.00
2023-04-15T23:47:17.683Z,100.00
2023-04-15T23:49:44.476Z,100.00
2023-04-15T23:52:11.650Z,100.00
2023-04-15T23:54:38.292Z,100.00
2023-04-15T23:57:05.040Z,100.00
2023-04-15T23:59:31.769Z,100.00
